createdAt,value
2018-07-13T00:00:39.495Z,962.45
2018-07-13T00:01:39.477Z,962.47
2018-07-13T00:02:39.461Z,962.47
2018-07-13T00:03:39.442Z,962.49
2018-07-13T00:04:39.425Z,962.51
2018-07-13T00:05:39.408Z,962.46
2018-07-13T00:06:39.390Z,962.46
2018-07-13T00:07:39.373Z,962.45
2018-07-13T00:08:39.360Z,962.44
2018-07-13T00:09:39.339Z,962.45
2018-07-13T00:10:39.321Z,962.42
2018-07-13T00:11:39.302Z,962.41
2018-07-13T00:12:39.285Z,962.40
2018-07-13T00:13:39.269Z,962.41
2018-07-13T00:14:39.250Z,962.40
2018-07-13T00:15:39.233Z,962.40
2018-07-13T00:16:39.216Z,962.43
2018-07-13T00:17:39.198Z,962.42
2018-07-13T00:18:39.181Z,962.42
2018-07-13T00:19:39.164Z,962.39
2018-07-13T00:20:39.145Z,962.38
2018-07-13T00:21:39.129Z,962.37
2018-07-13T00:22:39.112Z,962.34
2018-07-13T00:23:39.096Z,962.39
2018-07-13T00:24:39.076Z,962.41
2018-07-13T00:25:39.062Z,962.39
2018-07-13T00:26:39.040Z,962.37
2018-07-13T00:27:39.023Z,962.40
2018-07-13T00:28:39.006Z,962.40
2018-07-13T00:29:38.988Z,962.39
2018-07-13T00:30:38.969Z,962.42
2018-07-13T00:31:38.952Z,962.43
2018-07-13T00:32:38.935Z,962.41
2018-07-13T00:33:38.918Z,962.42
2018-07-13T00:34:38.899Z,962.40
2018-07-13T00:35:38.884Z,962.39
2018-07-13T00:36:38.865Z,962.42
2018-07-13T00:37:38.848Z,962.42
2018-07-13T00:38:38.830Z,962.40
2018-07-13T00:39:38.811Z,962.43
2018-07-13T00:40:38.794Z,962.42
2018-07-13T00:41:38.777Z,962.41
2018-07-13T00:42:38.761Z,962.39
2018-07-13T00:43:38.741Z,962.41
2018-07-13T00:44:38.724Z,962.40
2018-07-13T00:45:38.708Z,962.41
2018-07-13T00:46:38.689Z,962.41
2018-07-13T00:47:38.671Z,962.45
2018-07-13T00:48:38.653Z,962.43
2018-07-13T00:49:38.637Z,962.47
2018-07-13T00:50:38.619Z,962.45
2018-07-13T00:51:38.603Z,962.49
2018-07-13T00:52:38.585Z,962.48
2018-07-13T00:53:38.567Z,962.49
2018-07-13T00:54:38.548Z,962.46
2018-07-13T00:55:38.532Z,962.51
2018-07-13T00:56:38.515Z,962.52
2018-07-13T00:57:38.497Z,962.51
2018-07-13T00:58:38.479Z,962.51
2018-07-13T00:59:38.460Z,962.52
2018-07-13T01:00:38.444Z,962.55
2018-07-13T01:01:38.427Z,962.51
2018-07-13T01:02:38.409Z,962.52
2018-07-13T01:03:38.391Z,962.54
2018-07-13T01:04:38.373Z,962.53
2018-07-13T01:05:38.359Z,962.58
2018-07-13T01:06:38.337Z,962.54
2018-07-13T01:07:38.319Z,962.54
2018-07-13T01:08:38.302Z,962.57
2018-07-13T01:09:38.285Z,962.54
2018-07-13T01:10:38.266Z,962.56
2018-07-13T01:11:38.253Z,962.55
2018-07-13T01:12:38.232Z,962.54
2018-07-13T01:13:38.216Z,962.54
2018-07-13T01:14:38.196Z,962.56
2018-07-13T01:15:38.178Z,962.53
2018-07-13T01:16:38.161Z,962.56
2018-07-13T01:17:38.145Z,962.55
2018-07-13T01:18:38.131Z,962.59
2018-07-13T01:19:38.108Z,962.56
2018-07-13T01:20:38.095Z,962.57
2018-07-13T01:21:38.074Z,962.58
2018-07-13T01:22:38.055Z,962.59
2018-07-13T01:23:38.038Z,962.60
2018-07-13T01:24:38.021Z,962.56
2018-07-13T01:25:38.004Z,962.61
2018-07-13T01:26:37.984Z,962.59
2018-07-13T01:27:37.966Z,962.60
2018-07-13T01:28:37.949Z,962.61
2018-07-13T01:29:37.932Z,962.57
2018-07-13T01:30:37.914Z,962.55
2018-07-13T01:31:37.897Z,962.59
2018-07-13T01:32:37.879Z,962.58
2018-07-13T01:33:37.860Z,962.60
2018-07-13T01:34:37.841Z,962.61
2018-07-13T01:35:37.825Z,962.60
2018-07-13T01:36:37.807Z,962.60
2018-07-13T01:37:37.790Z,962.60
2018-07-13T01:38:37.771Z,962.64
2018-07-13T01:39:37.753Z,962.59
2018-07-13T01:40:37.735Z,962.63
2018-07-13T01:41:37.718Z,962.63
2018-07-13T01:42:37.699Z,962.60
2018-07-13T01:43:37.682Z,962.58
2018-07-13T01:44:37.665Z,962.58
2018-07-13T01:45:37.647Z,962.59
2018-07-13T01:46:37.678Z,962.57
2018-07-13T01:47:37.611Z,962.60
2018-07-13T01:48:37.595Z,962.62
2018-07-13T01:49:38.326Z,962.59
2018-07-13T01:50:37.557Z,962.63
2018-07-13T01:51:37.541Z,962.58
2018-07-13T01:52:37.520Z,962.58
2018-07-13T01:53:37.505Z,962.58
2018-07-13T01:54:37.483Z,962.57
2018-07-13T01:55:37.534Z,962.55
2018-07-13T01:56:37.447Z,962.57
2018-07-13T01:57:37.430Z,962.57
2018-07-13T01:58:37.410Z,962.55
2018-07-13T01:59:37.392Z,962.57
2018-07-13T02:00:37.374Z,962.57
2018-07-13T02:01:37.357Z,962.55
2018-07-13T02:02:37.339Z,962.55
2018-07-13T02:03:37.321Z,962.55
2018-07-13T02:04:37.302Z,962.52
2018-07-13T02:05:38.040Z,962.52
2018-07-13T02:06:37.266Z,962.51
2018-07-13T02:07:37.248Z,962.52
2018-07-13T02:08:37.230Z,962.50
2018-07-13T02:09:37.212Z,962.46
2018-07-13T02:10:37.195Z,962.49
2018-07-13T02:11:37.176Z,962.46
2018-07-13T02:12:37.158Z,962.50
2018-07-13T02:13:37.139Z,962.51
2018-07-13T02:14:37.120Z,962.55
2018-07-13T02:15:37.102Z,962.53
2018-07-13T02:16:37.082Z,962.50
2018-07-13T02:17:37.065Z,962.52
2018-07-13T02:18:37.045Z,962.54
2018-07-13T02:19:37.027Z,962.54
2018-07-13T02:20:37.010Z,962.52
2018-07-13T02:21:36.994Z,962.48
2018-07-13T02:22:36.971Z,962.50
2018-07-13T02:23:36.955Z,962.49
2018-07-13T02:24:36.935Z,962.51
2018-07-13T02:25:36.917Z,962.51
2018-07-13T02:26:36.898Z,962.54
2018-07-13T02:27:36.882Z,962.49
2018-07-13T02:28:36.861Z,962.51
2018-07-13T02:29:36.843Z,962.50
2018-07-13T02:30:36.824Z,962.51
2018-07-13T02:31:36.807Z,962.50
2018-07-13T02:32:36.786Z,962.48
2018-07-13T02:33:36.767Z,962.46
2018-07-13T02:34:36.749Z,962.51
2018-07-13T02:35:36.729Z,962.49
2018-07-13T02:36:36.711Z,962.49
2018-07-13T02:37:36.713Z,962.49
2018-07-13T02:38:36.674Z,962.53
2018-07-13T02:39:36.655Z,962.55
2018-07-13T02:40:36.636Z,962.56
2018-07-13T02:41:36.618Z,962.55
2018-07-13T02:42:36.599Z,962.62
2018-07-13T02:43:36.580Z,962.59
2018-07-13T02:44:36.562Z,962.63
2018-07-13T02:45:36.544Z,962.63
2018-07-13T02:46:36.527Z,962.66
2018-07-13T02:47:36.505Z,962.63
2018-07-13T02:48:36.486Z,962.61
2018-07-13T02:49:36.468Z,962.65
2018-07-13T02:50:36.451Z,962.62
2018-07-13T02:51:36.430Z,962.62
2018-07-13T02:52:36.410Z,962.63
2018-07-13T02:53:36.391Z,962.62
2018-07-13T02:54:36.371Z,962.63
2018-07-13T02:55:36.353Z,962.62
2018-07-13T02:56:36.335Z,962.64
2018-07-13T02:57:36.317Z,962.65
2018-07-13T02:58:36.297Z,962.66
2018-07-13T02:59:36.277Z,962.67
2018-07-13T03:00:36.259Z,962.68
2018-07-13T03:01:36.241Z,962.69
2018-07-13T03:02:36.223Z,962.72
2018-07-13T03:03:36.202Z,962.73
2018-07-13T03:04:36.182Z,962.71
2018-07-13T03:05:36.166Z,962.71
2018-07-13T03:06:36.144Z,962.71
2018-07-13T03:07:36.130Z,962.72
2018-07-13T03:08:36.106Z,962.73
2018-07-13T03:09:36.088Z,962.68
2018-07-13T03:10:36.067Z,962.74
2018-07-13T03:11:36.049Z,962.81
2018-07-13T03:12:36.032Z,962.75
2018-07-13T03:13:36.011Z,962.75
2018-07-13T03:14:35.992Z,962.78
2018-07-13T03:15:35.975Z,962.82
2018-07-13T03:16:35.956Z,962.81
2018-07-13T03:17:35.936Z,962.83
2018-07-13T03:18:35.916Z,962.81
2018-07-13T03:19:35.904Z,962.83
2018-07-13T03:20:35.877Z,962.88
2018-07-13T03:21:35.864Z,962.88
2018-07-13T03:22:35.839Z,962.88
2018-07-13T03:23:35.819Z,962.89
2018-07-13T03:24:35.802Z,962.93
2018-07-13T03:25:35.783Z,962.90
2018-07-13T03:26:35.770Z,962.95
2018-07-13T03:27:35.745Z,962.94
2018-07-13T03:28:35.726Z,962.98
2018-07-13T03:29:35.707Z,963.00
2018-07-13T03:30:35.689Z,962.99
2018-07-13T03:31:35.669Z,963.01
2018-07-13T03:32:35.649Z,963.05
2018-07-13T03:33:35.631Z,963.02
2018-07-13T03:34:35.611Z,963.05
2018-07-13T03:35:35.592Z,963.03
2018-07-13T03:36:35.574Z,963.02
2018-07-13T03:37:35.554Z,963.06
2018-07-13T03:38:35.534Z,963.07
2018-07-13T03:39:35.516Z,963.07
2018-07-13T03:40:35.498Z,963.08
2018-07-13T03:41:35.480Z,963.10
2018-07-13T03:42:35.459Z,963.11
2018-07-13T03:43:35.440Z,963.14
2018-07-13T03:44:35.422Z,963.13
2018-07-13T03:45:35.403Z,963.15
2018-07-13T03:46:35.433Z,963.12
2018-07-13T03:47:35.364Z,963.11
2018-07-13T03:48:35.346Z,963.10
2018-07-13T03:49:35.326Z,963.11
2018-07-13T03:50:35.307Z,963.12
2018-07-13T03:51:35.287Z,963.13
2018-07-13T03:52:35.269Z,963.11
2018-07-13T03:53:35.250Z,963.21
2018-07-13T03:54:35.230Z,963.17
2018-07-13T03:55:35.211Z,963.17
2018-07-13T03:56:35.192Z,963.18
2018-07-13T03:57:35.176Z,963.19
2018-07-13T03:58:35.154Z,963.20
2018-07-13T03:59:35.135Z,963.19
2018-07-13T04:00:35.161Z,963.14
2018-07-13T04:01:35.098Z,963.15
2018-07-13T04:02:35.078Z,963.15
2018-07-13T04:03:35.061Z,963.13
2018-07-13T04:04:35.040Z,963.15
2018-07-13T04:05:35.025Z,963.15
2018-07-13T04:06:35.040Z,963.15
2018-07-13T04:07:34.984Z,963.14
2018-07-13T04:08:34.967Z,963.17
2018-07-13T04:09:34.951Z,963.19
2018-07-13T04:10:34.925Z,963.21
2018-07-13T04:11:34.910Z,963.19
2018-07-13T04:12:34.888Z,963.16
2018-07-13T04:13:34.868Z,963.14
2018-07-13T04:14:34.909Z,963.17
2018-07-13T04:15:34.831Z,963.13
2018-07-13T04:16:34.810Z,963.12
2018-07-13T04:17:34.792Z,963.16
2018-07-13T04:18:34.773Z,963.13
2018-07-13T04:19:34.752Z,963.12
2018-07-13T04:20:34.734Z,963.11
2018-07-13T04:21:34.714Z,963.11
2018-07-13T04:22:34.695Z,963.12
2018-07-13T04:23:34.676Z,963.12
2018-07-13T04:24:34.657Z,963.12
2018-07-13T04:25:34.638Z,963.10
2018-07-13T04:26:34.620Z,963.08
2018-07-13T04:27:34.599Z,963.09
2018-07-13T04:28:34.580Z,963.09
2018-07-13T04:29:34.562Z,963.07
2018-07-13T04:30:34.542Z,963.12
2018-07-13T04:31:34.523Z,963.08
2018-07-13T04:32:34.504Z,963.06
2018-07-13T04:33:34.488Z,963.06
2018-07-13T04:34:34.467Z,963.11
2018-07-13T04:35:34.447Z,963.04
2018-07-13T04:36:34.427Z,963.09
2018-07-13T04:37:34.408Z,963.06
2018-07-13T04:38:34.389Z,963.07
2018-07-13T04:39:34.370Z,963.09
2018-07-13T04:40:34.351Z,963.10
2018-07-13T04:41:34.332Z,963.12
2018-07-13T04:42:34.313Z,963.09
2018-07-13T04:43:34.301Z,963.11
2018-07-13T04:44:34.275Z,963.13
2018-07-13T04:45:34.256Z,963.14
2018-07-13T04:46:34.236Z,963.17
2018-07-13T04:47:34.218Z,963.17
2018-07-13T04:48:34.296Z,963.19
2018-07-13T04:49:34.180Z,963.18
2018-07-13T04:50:34.160Z,963.16
2018-07-13T04:51:34.142Z,963.17
2018-07-13T04:52:34.126Z,963.18
2018-07-13T04:53:34.105Z,963.15
2018-07-13T04:54:34.085Z,963.18
2018-07-13T04:55:34.066Z,963.16
2018-07-13T04:56:34.051Z,963.17
2018-07-13T04:57:34.030Z,963.14
2018-07-13T04:58:34.009Z,963.16
2018-07-13T04:59:33.992Z,963.10
2018-07-13T05:00:34.029Z,963.14
2018-07-13T05:01:33.973Z,963.10
2018-07-13T05:02:33.935Z,963.07
2018-07-13T05:03:33.915Z,963.07
2018-07-13T05:04:33.897Z,963.10
2018-07-13T05:05:33.877Z,963.11
2018-07-13T05:06:33.858Z,963.12
2018-07-13T05:07:33.842Z,963.10
2018-07-13T05:08:33.821Z,963.11
2018-07-13T05:09:33.803Z,963.10
2018-07-13T05:10:33.785Z,963.12
2018-07-13T05:11:33.764Z,963.14
2018-07-13T05:12:34.497Z,963.13
2018-07-13T05:13:33.727Z,963.13
2018-07-13T05:14:33.708Z,963.13
2018-07-13T05:15:33.689Z,963.13
2018-07-13T05:16:33.671Z,963.12
2018-07-13T05:17:33.652Z,963.13
2018-07-13T05:18:33.633Z,963.14
2018-07-13T05:19:33.614Z,963.15
2018-07-13T05:20:33.597Z,963.13
2018-07-13T05:21:33.579Z,963.17
2018-07-13T05:22:33.561Z,963.15
2018-07-13T05:23:33.542Z,963.11
2018-07-13T05:24:33.524Z,963.13
2018-07-13T05:25:33.504Z,963.14
2018-07-13T05:26:33.487Z,963.12
2018-07-13T05:27:33.467Z,963.18
2018-07-13T05:28:34.951Z,963.15
2018-07-13T05:29:33.430Z,963.15
2018-07-13T05:30:33.411Z,963.16
2018-07-13T05:31:33.393Z,963.17
2018-07-13T05:32:33.376Z,963.16
2018-07-13T05:33:33.358Z,963.17
2018-07-13T05:34:33.339Z,963.12
2018-07-13T05:35:33.320Z,963.18
2018-07-13T05:36:33.304Z,963.14
2018-07-13T05:37:33.285Z,963.19
2018-07-13T05:38:33.268Z,963.19
2018-07-13T05:39:33.248Z,963.20
2018-07-13T05:40:33.231Z,963.22
2018-07-13T05:41:33.213Z,963.22
2018-07-13T05:42:33.195Z,963.19
2018-07-13T05:43:33.176Z,963.20
2018-07-13T05:44:33.157Z,963.15
2018-07-13T05:45:33.140Z,963.17
2018-07-13T05:46:33.124Z,963.17
2018-07-13T05:47:33.102Z,963.15
2018-07-13T05:48:33.085Z,963.12
2018-07-13T05:49:33.072Z,963.14
2018-07-13T05:50:33.048Z,963.12
2018-07-13T05:51:33.031Z,963.12
2018-07-13T05:52:33.013Z,963.14
2018-07-13T05:53:32.995Z,963.14
2018-07-13T05:54:32.976Z,963.12
2018-07-13T05:55:32.961Z,963.13
2018-07-13T05:56:32.941Z,963.11
2018-07-13T05:57:32.923Z,963.13
2018-07-13T05:58:32.905Z,963.15
2018-07-13T05:59:32.887Z,963.15
2018-07-13T06:00:32.869Z,963.19
2018-07-13T06:01:32.852Z,963.16
2018-07-13T06:02:32.834Z,963.18
2018-07-13T06:03:32.816Z,963.21
2018-07-13T06:04:32.799Z,963.25
2018-07-13T06:05:32.781Z,963.23
2018-07-13T06:06:32.765Z,963.23
2018-07-13T06:07:32.745Z,963.25
2018-07-13T06:08:32.728Z,963.27
2018-07-13T06:09:32.711Z,963.28
2018-07-13T06:10:33.443Z,963.27
2018-07-13T06:11:32.675Z,963.29
2018-07-13T06:12:32.658Z,963.29
2018-07-13T06:13:32.641Z,963.26
2018-07-13T06:14:32.622Z,963.29
2018-07-13T06:15:32.612Z,963.30
2018-07-13T06:16:32.589Z,963.24
2018-07-13T06:17:32.571Z,963.27
2018-07-13T06:18:32.553Z,963.24
2018-07-13T06:19:32.536Z,963.24
2018-07-13T06:20:32.519Z,963.27
2018-07-13T06:21:32.501Z,963.29
2018-07-13T06:22:32.484Z,963.26
2018-07-13T06:23:32.466Z,963.28
2018-07-13T06:24:32.453Z,963.31
2018-07-13T06:25:32.432Z,963.31
2018-07-13T06:26:32.413Z,963.29
2018-07-13T06:27:32.396Z,963.34
2018-07-13T06:28:32.379Z,963.31
2018-07-13T06:29:32.362Z,963.34
2018-07-13T06:30:32.344Z,963.37
2018-07-13T06:31:32.352Z,963.33
2018-07-13T06:32:32.309Z,963.34
2018-07-13T06:33:32.292Z,963.36
2018-07-13T06:34:32.275Z,963.33
2018-07-13T06:35:32.257Z,963.37
2018-07-13T06:36:32.241Z,963.37
2018-07-13T06:37:32.223Z,963.36
2018-07-13T06:38:32.206Z,963.39
2018-07-13T06:39:32.190Z,963.42
2018-07-13T06:40:32.179Z,963.40
2018-07-13T06:41:32.155Z,963.37
2018-07-13T06:42:32.138Z,963.41
2018-07-13T06:43:32.123Z,963.39
2018-07-13T06:44:32.105Z,963.38
2018-07-13T06:45:32.088Z,963.41
2018-07-13T06:46:32.069Z,963.38
2018-07-13T06:47:32.053Z,963.39
2018-07-13T06:48:32.039Z,963.37
2018-07-13T06:49:32.018Z,963.39
2018-07-13T06:50:32.111Z,963.41
2018-07-13T06:51:31.984Z,963.38
2018-07-13T06:52:31.969Z,963.40
2018-07-13T06:53:31.951Z,963.42
2018-07-13T06:54:31.933Z,963.44
2018-07-13T06:55:31.917Z,963.42
2018-07-13T06:56:31.901Z,963.45
2018-07-13T06:57:31.884Z,963.43
2018-07-13T06:58:31.867Z,963.39
2018-07-13T06:59:31.849Z,963.39
2018-07-13T07:00:31.833Z,963.39
2018-07-13T07:01:31.816Z,963.42
2018-07-13T07:02:31.798Z,963.42
2018-07-13T07:03:31.795Z,963.41
2018-07-13T07:04:31.767Z,963.43
2018-07-13T07:05:31.753Z,963.43
2018-07-13T07:06:31.735Z,963.42
2018-07-13T07:07:31.728Z,963.45
2018-07-13T07:08:31.700Z,963.45
2018-07-13T07:09:31.683Z,963.46
2018-07-13T07:10:31.666Z,963.45
2018-07-13T07:11:31.650Z,963.47
2018-07-13T07:12:31.633Z,963.44
2018-07-13T07:13:31.616Z,963.45
2018-07-13T07:14:32.351Z,963.43
2018-07-13T07:15:31.583Z,963.49
2018-07-13T07:16:31.567Z,963.43
2018-07-13T07:17:31.550Z,963.44
2018-07-13T07:18:31.533Z,963.44
2018-07-13T07:19:31.517Z,963.41
2018-07-13T07:20:31.500Z,963.43
2018-07-13T07:21:31.484Z,963.43
2018-07-13T07:22:31.466Z,963.40
2018-07-13T07:23:31.451Z,963.41
2018-07-13T07:24:31.480Z,963.42
2018-07-13T07:25:31.419Z,963.42
2018-07-13T07:26:31.400Z,963.41
2018-07-13T07:27:31.385Z,963.41
2018-07-13T07:28:31.369Z,963.36
2018-07-13T07:29:31.352Z,963.38
2018-07-13T07:30:31.366Z,963.38
2018-07-13T07:31:31.319Z,963.39
2018-07-13T07:32:31.304Z,963.42
2018-07-13T07:33:31.295Z,963.41
2018-07-13T07:34:31.270Z,963.41
2018-07-13T07:35:32.005Z,963.41
2018-07-13T07:36:31.237Z,963.44
2018-07-13T07:37:31.222Z,963.41
2018-07-13T07:38:31.347Z,963.39
2018-07-13T07:39:31.189Z,963.48
2018-07-13T07:40:31.172Z,963.44
2018-07-13T07:41:31.157Z,963.40
2018-07-13T07:42:31.139Z,963.44
2018-07-13T07:43:31.124Z,963.42
2018-07-13T07:44:31.107Z,963.43
2018-07-13T07:45:31.092Z,963.42
2018-07-13T07:46:31.076Z,963.42
2018-07-13T07:47:31.059Z,963.40
2018-07-13T07:48:31.045Z,963.42
2018-07-13T07:49:31.028Z,963.45
2018-07-13T07:50:31.012Z,963.40
2018-07-13T07:51:30.995Z,963.42
2018-07-13T07:52:30.980Z,963.42
2018-07-13T07:53:30.964Z,963.46
2018-07-13T07:54:30.948Z,963.46
2018-07-13T07:55:30.933Z,963.52
2018-07-13T07:56:30.918Z,963.50
2018-07-13T07:57:30.904Z,963.49
2018-07-13T07:58:30.884Z,963.50
2018-07-13T07:59:30.871Z,963.52
2018-07-13T08:00:30.853Z,963.47
2018-07-13T08:01:30.838Z,963.52
2018-07-13T08:02:30.824Z,963.49
2018-07-13T08:03:30.806Z,963.53
2018-07-13T08:04:30.790Z,963.50
2018-07-13T08:05:30.775Z,963.45
2018-07-13T08:06:30.849Z,963.46
2018-07-13T08:07:30.748Z,963.45
2018-07-13T08:08:30.727Z,963.44
2018-07-13T08:09:30.712Z,963.40
2018-07-13T08:10:30.695Z,963.44
2018-07-13T08:11:30.679Z,963.38
2018-07-13T08:12:30.664Z,963.39
2018-07-13T08:13:30.711Z,963.32
2018-07-13T08:14:30.635Z,963.33
2018-07-13T08:15:30.618Z,963.30
2018-07-13T08:16:30.601Z,963.35
2018-07-13T08:17:30.586Z,963.36
2018-07-13T08:18:30.568Z,963.36
2018-07-13T08:19:30.558Z,963.37
2018-07-13T08:20:30.541Z,963.35
2018-07-13T08:21:30.522Z,963.37
2018-07-13T08:22:30.507Z,963.32
2018-07-13T08:23:30.491Z,963.31
2018-07-13T08:24:30.475Z,963.32
2018-07-13T08:25:30.463Z,963.34
2018-07-13T08:26:30.444Z,963.32
2018-07-13T08:27:30.430Z,963.31
2018-07-13T08:28:31.163Z,963.29
2018-07-13T08:29:30.396Z,963.34
2018-07-13T08:30:30.382Z,963.32
2018-07-13T08:31:30.367Z,963.31
2018-07-13T08:32:30.350Z,963.29
2018-07-13T08:33:30.335Z,963.32
2018-07-13T08:34:30.318Z,963.27
2018-07-13T08:35:30.303Z,963.31
2018-07-13T08:36:30.288Z,963.28
2018-07-13T08:37:30.273Z,963.29
2018-07-13T08:38:30.257Z,963.30
2018-07-13T08:39:30.240Z,963.28
2018-07-13T08:40:30.228Z,963.35
2018-07-13T08:41:30.212Z,963.32
2018-07-13T08:42:30.196Z,963.32
2018-07-13T08:43:30.179Z,963.33
2018-07-13T08:44:32.417Z,963.31
2018-07-13T08:45:30.150Z,963.30
2018-07-13T08:46:30.134Z,963.25
2018-07-13T08:47:30.120Z,963.31
2018-07-13T08:48:30.105Z,963.26
2018-07-13T08:49:30.089Z,963.25
2018-07-13T08:50:30.823Z,963.28
2018-07-13T08:51:30.227Z,963.31
2018-07-13T08:52:30.044Z,963.30
2018-07-13T08:53:30.029Z,963.29
2018-07-13T08:54:30.012Z,963.28
2018-07-13T08:55:30.036Z,963.27
2018-07-13T08:56:29.986Z,963.30
2018-07-13T08:57:29.968Z,963.28
2018-07-13T08:58:29.951Z,963.28
2018-07-13T08:59:29.937Z,963.28
2018-07-13T09:00:29.922Z,963.23
2018-07-13T09:01:30.658Z,963.31
2018-07-13T09:02:29.892Z,963.29
2018-07-13T09:03:29.877Z,963.30
2018-07-13T09:04:29.975Z,963.29
2018-07-13T09:05:29.845Z,963.26
2018-07-13T09:06:29.904Z,963.25
2018-07-13T09:07:29.875Z,963.25
2018-07-13T09:08:29.799Z,963.26
2018-07-13T09:09:29.785Z,963.24
2018-07-13T09:10:29.771Z,963.29
2018-07-13T09:11:29.756Z,963.26
2018-07-13T09:12:29.740Z,963.26
2018-07-13T09:13:29.725Z,963.25
2018-07-13T09:14:29.712Z,963.23
2018-07-13T09:15:29.695Z,963.23
2018-07-13T09:16:29.681Z,963.27
2018-07-13T09:17:29.667Z,963.27
2018-07-13T09:18:29.650Z,963.23
2018-07-13T09:19:29.635Z,963.26
2018-07-13T09:20:29.622Z,963.24
2018-07-13T09:21:29.607Z,963.27
2018-07-13T09:22:29.591Z,963.24
2018-07-13T09:23:29.577Z,963.27
2018-07-13T09:24:29.562Z,963.21
2018-07-13T09:25:29.548Z,963.26
2018-07-13T09:26:29.533Z,963.22
2018-07-13T09:27:29.518Z,963.22
2018-07-13T09:28:29.503Z,963.21
2018-07-13T09:29:29.489Z,963.27
2018-07-13T09:30:29.473Z,963.24
2018-07-13T09:31:29.460Z,963.23
2018-07-13T09:32:29.446Z,963.26
2018-07-13T09:33:29.429Z,963.25
2018-07-13T09:34:29.415Z,963.26
2018-07-13T09:35:29.399Z,963.23
2018-07-13T09:36:29.389Z,963.24
2018-07-13T09:37:29.371Z,963.27
2018-07-13T09:38:29.429Z,963.24
2018-07-13T09:39:29.341Z,963.29
2018-07-13T09:40:29.327Z,963.27
2018-07-13T09:41:29.314Z,963.28
2018-07-13T09:42:29.298Z,963.28
2018-07-13T09:43:29.283Z,963.29
2018-07-13T09:44:29.268Z,963.29
2018-07-13T09:45:29.255Z,963.25
2018-07-13T09:46:29.301Z,963.29
2018-07-13T09:47:29.225Z,963.32
2018-07-13T09:48:29.210Z,963.31
2018-07-13T09:49:29.198Z,963.32
2018-07-13T09:50:29.181Z,963.32
2018-07-13T09:51:29.168Z,963.34
2018-07-13T09:52:29.154Z,963.30
2018-07-13T09:53:29.142Z,963.32
2018-07-13T09:54:29.125Z,963.28
2018-07-13T09:55:29.111Z,963.27
2018-07-13T09:56:29.097Z,963.30
2018-07-13T09:57:29.082Z,963.24
2018-07-13T09:58:29.067Z,963.32
2018-07-13T09:59:29.053Z,963.27
2018-07-13T10:00:29.081Z,963.25
2018-07-13T10:01:29.027Z,963.30
2018-07-13T10:02:29.011Z,963.27
2018-07-13T10:03:28.996Z,963.30
2018-07-13T10:04:28.983Z,963.33
2018-07-13T10:05:28.975Z,963.31
2018-07-13T10:06:28.956Z,963.35
2018-07-13T10:07:28.940Z,963.31
2018-07-13T10:08:28.926Z,963.28
2018-07-13T10:09:28.913Z,963.27
2018-07-13T10:10:28.898Z,963.26
2018-07-13T10:11:28.885Z,963.26
2018-07-13T10:12:28.872Z,963.25
2018-07-13T10:13:28.885Z,963.26
2018-07-13T10:14:28.842Z,963.24
2018-07-13T10:15:28.828Z,963.30
2018-07-13T10:16:28.813Z,963.29
2018-07-13T10:17:28.800Z,963.26
2018-07-13T10:18:28.785Z,963.26
2018-07-13T10:19:28.771Z,963.22
2018-07-13T10:20:28.758Z,963.27
2018-07-13T10:21:28.745Z,963.27
2018-07-13T10:22:28.730Z,963.30
2018-07-13T10:23:28.715Z,963.28
2018-07-13T10:24:28.703Z,963.32
2018-07-13T10:25:28.688Z,963.30
2018-07-13T10:26:28.675Z,963.33
2018-07-13T10:27:28.661Z,963.32
2018-07-13T10:28:28.648Z,963.32
2018-07-13T10:29:28.634Z,963.31
2018-07-13T10:30:28.620Z,963.36
2018-07-13T10:31:28.605Z,963.33
2018-07-13T10:32:28.596Z,963.31
2018-07-13T10:33:28.579Z,963.28
2018-07-13T10:34:28.566Z,963.31
2018-07-13T10:35:28.606Z,963.24
2018-07-13T10:36:28.539Z,963.24
2018-07-13T10:37:28.526Z,963.27
2018-07-13T10:38:28.510Z,963.29
2018-07-13T10:39:28.498Z,963.26
2018-07-13T10:40:28.485Z,963.25
2018-07-13T10:41:28.471Z,963.24
2018-07-13T10:42:28.457Z,963.20
2018-07-13T10:43:28.445Z,963.23
2018-07-13T10:44:28.431Z,963.20
2018-07-13T10:45:28.421Z,963.17
2018-07-13T10:46:28.404Z,963.16
2018-07-13T10:47:28.391Z,963.18
2018-07-13T10:48:28.378Z,963.21
2018-07-13T10:49:28.365Z,963.19
2018-07-13T10:50:28.352Z,963.15
2018-07-13T10:51:28.398Z,963.11
2018-07-13T10:52:28.323Z,963.16
2018-07-13T10:53:28.312Z,963.12
2018-07-13T10:54:28.298Z,963.10
2018-07-13T10:55:29.034Z,963.09
2018-07-13T10:56:28.271Z,963.12
2018-07-13T10:57:28.257Z,963.11
2018-07-13T10:58:28.246Z,963.05
2018-07-13T10:59:28.230Z,963.10
2018-07-13T11:00:28.217Z,963.07
2018-07-13T11:01:28.205Z,963.07
2018-07-13T11:02:28.192Z,963.05
2018-07-13T11:03:28.178Z,963.06
2018-07-13T11:04:28.169Z,963.08
2018-07-13T11:05:28.152Z,963.05
2018-07-13T11:06:28.140Z,963.03
2018-07-13T11:07:28.128Z,963.07
2018-07-13T11:08:28.114Z,963.05
2018-07-13T11:09:28.103Z,963.00
2018-07-13T11:10:28.087Z,962.99
2018-07-13T11:11:28.073Z,963.02
2018-07-13T11:12:28.067Z,963.01
2018-07-13T11:13:28.047Z,963.01
2018-07-13T11:14:28.034Z,962.99
2018-07-13T11:15:28.020Z,962.95
2018-07-13T11:16:28.008Z,962.98
2018-07-13T11:17:27.997Z,962.95
2018-07-13T11:18:27.981Z,962.96
2018-07-13T11:19:27.969Z,962.95
2018-07-13T11:20:27.956Z,962.97
2018-07-13T11:21:27.942Z,962.94
2018-07-13T11:22:27.929Z,962.96
2018-07-13T11:23:27.916Z,962.94
2018-07-13T11:24:27.903Z,962.93
2018-07-13T11:25:27.891Z,962.95
2018-07-13T11:26:27.881Z,962.96
2018-07-13T11:27:27.864Z,962.97
2018-07-13T11:28:27.854Z,962.94
2018-07-13T11:29:27.839Z,962.95
2018-07-13T11:30:27.827Z,962.92
2018-07-13T11:31:27.813Z,962.95
2018-07-13T11:32:27.800Z,962.96
2018-07-13T11:33:27.789Z,962.94
2018-07-13T11:34:27.774Z,962.93
2018-07-13T11:35:27.761Z,962.91
2018-07-13T11:36:27.807Z,962.90
2018-07-13T11:37:27.773Z,962.94
2018-07-13T11:38:28.473Z,962.86
2018-07-13T11:39:27.711Z,962.87
2018-07-13T11:40:27.697Z,962.84
2018-07-13T11:41:27.689Z,962.82
2018-07-13T11:42:27.671Z,962.82
2018-07-13T11:43:27.659Z,962.84
2018-07-13T11:44:27.647Z,962.86
2018-07-13T11:45:27.634Z,962.86
2018-07-13T11:46:27.622Z,962.85
2018-07-13T11:47:27.615Z,962.82
2018-07-13T11:48:27.598Z,962.82
2018-07-13T11:49:27.586Z,962.78
2018-07-13T11:50:27.575Z,962.80
2018-07-13T11:51:27.556Z,962.74
2018-07-13T11:52:27.545Z,962.76
2018-07-13T11:53:27.532Z,962.74
2018-07-13T11:54:27.519Z,962.72
2018-07-13T11:55:27.507Z,962.72
2018-07-13T11:56:27.495Z,962.69
2018-07-13T11:57:27.482Z,962.69
2018-07-13T11:58:27.468Z,962.66
2018-07-13T11:59:27.456Z,962.63
2018-07-13T12:00:27.449Z,962.61
2018-07-13T12:01:27.488Z,962.61
2018-07-13T12:02:27.420Z,962.58
2018-07-13T12:03:27.408Z,962.55
2018-07-13T12:04:27.396Z,962.56
2018-07-13T12:05:27.382Z,962.58
2018-07-13T12:06:27.372Z,962.59
2018-07-13T12:07:27.415Z,962.55
2018-07-13T12:08:27.346Z,962.50
2018-07-13T12:09:27.332Z,962.54
2018-07-13T12:10:27.320Z,962.55
2018-07-13T12:11:27.308Z,962.57
2018-07-13T12:12:27.297Z,962.55
2018-07-13T12:13:27.284Z,962.52
2018-07-13T12:14:27.354Z,962.49
2018-07-13T12:15:27.259Z,962.49
2018-07-13T12:16:27.249Z,962.56
2018-07-13T12:17:27.254Z,962.51
2018-07-13T12:18:27.222Z,962.48
2018-07-13T12:19:27.211Z,962.43
2018-07-13T12:20:27.199Z,962.48
2018-07-13T12:21:27.187Z,962.43
2018-07-13T12:22:27.178Z,962.45
2018-07-13T12:23:27.167Z,962.43
2018-07-13T12:24:27.155Z,962.45
2018-07-13T12:25:27.140Z,962.44
2018-07-13T12:26:27.125Z,962.44
2018-07-13T12:27:27.114Z,962.36
2018-07-13T12:28:27.153Z,962.38